Time;durP1;ratioP1;P1;durP2;ratioP2;P2;SDS_P1;SDS_P2;PMS_P1;PMS_P2;Temp;Humidity;BMP_temperature;BMP_pressure;BME280_temperature;BME280_humidity;BME280_pressure;Samples;Min_cycle;Max_cycle;Signal;HPM_P1;HPM_P2
2023/07/30 00:01:45;;;;;;;6.63;3.20;;;;;;;-142.57;70.54;115900.28;4998217;28;20034;-87
2023/07/30 00:04:11;;;;;;;13.27;2.72;;;;;;;-142.57;71.20;115900.28;4998519;28;20036;-88
2023/07/30 00:06:36;;;;;;;11.75;3.10;;;;;;;-142.57;71.03;115900.28;4980516;28;20026;-88
2023/07/30 00:09:02;;;;;;;9.90;2.72;;;;;;;-142.57;71.50;115900.28;4997790;28;20093;-85
2023/07/30 00:11:27;;;;;;;12.93;2.67;;;;;;;-142.57;71.81;115900.28;4998427;28;20045;-88
2023/07/30 00:13:53;;;;;;;7.47;2.50;;;;;;;-142.57;72.15;115900.28;4998367;28;20036;-87
2023/07/30 00:16:18;;;;;;;40.95;3.10;;;;;;;-142.57;72.00;115900.28;4982308;28;20058;-89
2023/07/30 00:18:44;;;;;;;6.22;2.45;;;;;;;-142.57;72.10;115900.28;4999037;28;20030;-88
2023/07/30 00:21:09;;;;;;;5.93;2.67;;;;;;;-142.57;72.50;115900.28;4982047;28;20046;-86
2023/07/30 00:23:35;;;;;;;12.23;2.03;;;;;;;-142.57;72.87;115900.28;4997951;28;20033;-89
2023/07/30 00:26:00;;;;;;;10.05;2.25;;;;;;;-142.57;72.13;115900.28;4995735;28;20081;-87
2023/07/30 00:28:26;;;;;;;5.47;2.22;;;;;;;-142.57;72.89;115900.28;4992294;28;20448;-84
2023/07/30 00:30:51;;;;;;;5.13;2.13;;;;;;;-142.57;73.62;115900.28;5005052;28;20037;-83
2023/07/30 00:33:17;;;;;;;13.13;2.50;;;;;;;-142.57;72.24;115900.28;5014372;28;20042;-85
2023/07/30 00:35:42;;;;;;;6.97;1.90;;;;;;;-142.57;72.75;115900.28;5004767;28;20034;-84
2023/07/30 00:38:08;;;;;;;11.98;2.35;;;;;;;-142.57;72.98;115900.28;5011298;28;20454;-85
2023/07/30 00:40:43;;;;;;;3.63;1.85;;;;;;;-142.57;72.81;115900.28;5009812;28;20035;-83
2023/07/30 00:43:09;;;;;;;3.00;1.65;;;;;;;-142.57;72.06;115900.28;4984824;28;20034;-83
2023/07/30 00:45:35;;;;;;;5.97;1.40;;;;;;;-142.57;72.21;115900.28;4996572;28;20109;-85
2023/07/30 00:48:01;;;;;;;2.13;1.27;;;;;;;-142.57;73.42;115900.28;4979318;28;20039;-85
2023/07/30 00:50:27;;;;;;;4.90;2.03;;;;;;;-142.57;75.64;115900.28;4975902;28;20398;-84
2023/07/30 00:52:53;;;;;;;2.60;1.67;;;;;;;-142.57;76.53;115900.28;4996553;28;20030;-83
2023/07/30 00:55:19;;;;;;;4.47;1.80;;;;;;;-142.57;77.68;115900.28;4978527;28;20045;-83
2023/07/30 00:57:45;;;;;;;2.40;1.73;;;;;;;-142.57;77.54;115900.28;4978481;28;20081;-84
2023/07/30 01:00:11;;;;;;;2.55;1.65;;;;;;;-142.57;77.78;115900.28;4995647;28;20042;-85
2023/07/30 01:02:37;;;;;;;5.40;2.13;;;;;;;-142.57;77.87;115900.28;4994720;28;20034;-83
2023/07/30 01:05:03;;;;;;;3.58;1.70;;;;;;;-142.57;78.48;115900.28;4995220;28;20440;-84
2023/07/30 01:07:32;;;;;;;3.10;1.55;;;;;;;-142.57;77.94;115900.28;4977276;28;20037;-83
2023/07/30 01:10:00;;;;;;;3.15;1.73;;;;;;;-142.57;77.99;115900.28;4976984;28;20042;-83
2023/07/30 01:12:27;;;;;;;4.28;1.60;;;;;;;-142.57;78.75;115900.28;4994690;28;20185;-85
2023/07/30 01:14:55;;;;;;;2.70;1.90;;;;;;;-142.57;78.46;115900.28;4994527;28;20041;-84
2023/07/30 01:17:22;;;;;;;4.20;1.52;;;;;;;-142.57;78.65;115900.28;4961327;28;20384;-84
2023/07/30 01:19:49;;;;;;;5.38;1.95;;;;;;;-142.57;79.39;115900.28;4975891;28;20109;-83
2023/07/30 01:22:15;;;;;;;5.55;1.77;;;;;;;-142.57;80.62;115900.28;4994447;28;20093;-84
2023/07/30 01:24:41;;;;;;;6.10;2.20;;;;;;;-142.57;80.62;115900.28;4994825;28;20078;-84
2023/07/30 01:27:17;;;;;;;4.68;1.90;;;;;;;-142.57;79.44;115900.28;4994641;28;20438;-85
2023/07/30 01:29:54;;;;;;;6.32;1.95;;;;;;;-142.57;80.92;115900.28;4976346;28;20101;-83
2023/07/30 01:32:24;;;;;;;4.13;1.48;;;;;;;-142.57;80.51;115900.28;4994501;28;20487;-83
2023/07/30 01:34:52;;;;;;;6.57;2.22;;;;;;;-142.57;82.38;115900.28;4994153;28;20475;-83
2023/07/30 01:37:19;;;;;;;5.30;1.80;;;;;;;-142.57;83.31;115900.28;4993752;28;20106;-84
2023/07/30 01:39:47;;;;;;;2.97;1.60;;;;;;;-142.57;83.99;115900.28;4994091;28;20038;-83
2023/07/30 01:42:13;;;;;;;5.25;1.60;;;;;;;-142.57;82.95;115900.28;4960184;28;20038;-82
2023/07/30 01:44:38;;;;;;;7.13;1.75;;;;;;;-142.57;82.68;115900.28;4994104;28;20031;-82
2023/07/30 01:47:04;;;;;;;2.03;1.50;;;;;;;-142.57;83.11;115900.28;4976734;28;20050;-84
2023/07/30 01:49:30;;;;;;;2.90;1.50;;;;;;;-142.57;82.70;115900.28;4993625;28;20034;-85
2023/07/30 01:51:55;;;;;;;3.55;1.58;;;;;;;-142.57;82.45;115900.28;4976393;28;20125;-84
2023/07/30 01:54:21;;;;;;;5.80;1.50;;;;;;;-142.57;82.45;115900.28;4993849;28;20109;-83
2023/07/30 01:56:46;;;;;;;5.50;1.58;;;;;;;-142.57;82.58;115900.28;4993939;28;20034;-85
2023/07/30 01:59:12;;;;;;;4.18;1.50;;;;;;;-142.57;82.06;115900.28;4976430;28;20046;-83
2023/07/30 02:01:38;;;;;;;3.22;1.73;;;;;;;-142.57;81.63;115900.28;4976377;28;20035;-84
2023/07/30 02:04:03;;;;;;;3.63;1.50;;;;;;;-142.57;82.10;115900.28;4991564;28;20066;-83
2023/07/30 02:06:29;;;;;;;2.50;1.40;;;;;;;-142.57;82.19;115900.28;4978223;28;20438;-84
2023/07/30 02:08:54;;;;;;;3.85;1.77;;;;;;;-142.57;82.13;115900.28;4993204;28;20030;-83
2023/07/30 02:11:20;;;;;;;3.33;1.50;;;;;;;-142.57;81.88;115900.28;4992458;28;20045;-84
2023/07/30 02:13:45;;;;;;;4.05;1.58;;;;;;;-142.57;82.94;115900.28;4982206;28;20042;-82
2023/07/30 02:16:11;;;;;;;3.72;1.83;;;;;;;-142.57;83.07;115900.28;4976102;28;20444;-83
2023/07/30 02:18:37;;;;;;;4.18;1.85;;;;;;;-142.57;84.07;115900.28;4975789;28;20490;-83
2023/07/30 02:21:02;;;;;;;5.07;1.90;;;;;;;-142.57;83.35;115900.28;4993474;28;20149;-83
2023/07/30 02:23:28;;;;;;;3.00;1.88;;;;;;;-142.57;83.41;115900.28;4993599;28;20034;-83
2023/07/30 02:25:53;;;;;;;3.70;1.60;;;;;;;-142.57;83.52;115900.28;4994082;28;20499;-83
2023/07/30 02:28:19;;;;;;;5.85;1.88;;;;;;;-142.57;84.80;115900.28;4993573;28;20070;-83
2023/07/30 02:30:45;;;;;;;4.28;2.10;;;;;;;-142.57;84.52;115900.28;4972400;28;20031;-84
2023/07/30 02:33:11;;;;;;;2.47;1.75;;;;;;;-142.57;84.84;115900.28;4986315;28;20093;-84
2023/07/30 02:35:36;;;;;;;3.33;2.00;;;;;;;-142.57;84.75;115900.28;4960143;28;20030;-84
2023/07/30 02:38:03;;;;;;;2.88;1.77;;;;;;;-142.57;85.53;115900.28;4993399;28;20480;-83
2023/07/30 02:40:29;;;;;;;3.45;1.70;;;;;;;-142.57;86.04;115900.28;4993506;28;20030;-83
2023/07/30 02:42:55;;;;;;;5.97;2.08;;;;;;;-142.57;86.50;115900.28;4975991;28;20030;-83
2023/07/30 02:45:20;;;;;;;2.45;1.70;;;;;;;-142.57;86.89;115900.28;4975801;28;20076;-83
2023/07/30 02:47:46;;;;;;;3.38;2.00;;;;;;;-142.57;87.43;115900.28;4993502;28;20109;-85
2023/07/30 02:50:12;;;;;;;3.75;1.95;;;;;;;-142.57;86.63;115900.28;4993477;28;20537;-84
2023/07/30 02:52:37;;;;;;;4.10;1.98;;;;;;;-142.57;87.12;115900.28;4993284;28;20042;-84
2023/07/30 02:55:03;;;;;;;5.35;2.17;;;;;;;-142.57;86.70;115900.28;4975421;28;20042;-84
2023/07/30 02:57:28;;;;;;;5.57;1.70;;;;;;;-142.57;87.32;115900.28;4976156;28;20072;-85
2023/07/30 02:59:54;;;;;;;9.45;1.80;;;;;;;-142.57;88.40;115900.28;4993131;28;20035;-83
2023/07/30 03:02:19;;;;;;;4.43;1.80;;;;;;;-142.57;89.29;115900.28;4979155;28;20080;-82
2023/07/30 03:04:45;;;;;;;3.42;1.90;;;;;;;-142.57;88.79;115900.28;4981651;28;20054;-84
2023/07/30 03:07:11;;;;;;;4.68;2.17;;;;;;;-142.57;88.73;115900.28;4993432;28;20475;-81
2023/07/30 03:09:36;;;;;;;6.55;2.00;;;;;;;-142.57;90.15;115900.28;4993365;28;20053;-83
2023/07/30 03:12:02;;;;;;;4.40;2.08;;;;;;;-142.57;90.56;115900.28;4975812;28;20038;-84
2023/07/30 03:14:29;;;;;;;3.58;2.28;;;;;;;-142.57;90.41;115900.28;4962867;28;20031;-83
2023/07/30 03:16:55;;;;;;;6.75;2.05;;;;;;;-142.57;89.63;115900.28;4973940;28;20023;-83
2023/07/30 03:19:20;;;;;;;2.90;1.98;;;;;;;-142.57;88.41;115900.28;4957282;28;20042;-83
2023/07/30 03:21:46;;;;;;;4.90;1.90;;;;;;;-142.57;88.34;115900.28;4973615;28;20429;-84
2023/07/30 03:24:11;;;;;;;5.05;1.98;;;;;;;-142.57;89.18;115900.28;4985181;28;20092;-84
2023/07/30 03:26:37;;;;;;;5.30;2.40;;;;;;;-142.57;89.18;115900.28;4993140;28;20034;-85
2023/07/30 03:29:02;;;;;;;5.97;1.88;;;;;;;-142.57;89.39;115900.28;4993093;28;20031;-84
2023/07/30 03:31:30;;;;;;;6.93;2.67;;;;;;;-142.57;90.30;115900.28;4993278;28;20037;-84
2023/07/30 03:33:56;;;;;;;8.05;1.95;;;;;;;-142.57;90.65;115900.28;4975401;28;20038;-84
2023/07/30 03:36:22;;;;;;;6.97;2.20;;;;;;;-142.57;92.05;115900.28;4992796;28;20034;-83
2023/07/30 03:38:47;;;;;;;4.70;2.20;;;;;;;-142.57;92.46;115900.28;4993082;28;20069;-83
2023/07/30 03:41:13;;;;;;;3.47;2.35;;;;;;;-142.57;91.40;115900.28;4992595;28;20041;-83
2023/07/30 03:43:38;;;;;;;4.25;1.95;;;;;;;-142.57;92.52;115900.28;4996409;28;20129;-82
2023/07/30 03:46:04;;;;;;;4.35;1.90;;;;;;;-142.57;94.11;115900.28;4978711;28;20080;-85
2023/07/30 03:48:30;;;;;;;5.00;2.50;;;;;;;-142.57;96.36;115900.28;4996379;28;20038;-84
2023/07/30 03:50:56;;;;;;;5.15;2.35;;;;;;;-142.57;96.17;115900.28;4997776;28;20161;-83
2023/07/30 03:53:22;;;;;;;6.15;2.42;;;;;;;-142.57;95.21;115900.28;4979130;28;20065;-83
2023/07/30 03:55:48;;;;;;;5.20;2.67;;;;;;;-142.57;95.85;115900.28;4995648;28;20369;-84
2023/07/30 03:58:14;;;;;;;8.05;2.38;;;;;;;-142.57;95.44;115900.28;4978568;28;20026;-83
2023/07/30 04:00:40;;;;;;;4.10;2.22;;;;;;;-142.57;97.13;115900.28;4978933;28;20045;-82
2023/07/30 04:03:05;;;;;;;5.32;2.33;;;;;;;-142.57;99.07;115900.28;4996210;28;20030;-85
2023/07/30 04:05:31;;;;;;;3.47;2.15;;;;;;;-142.57;100.00;115900.28;4995589;28;20034;-83
2023/07/30 04:07:57;;;;;;;6.43;2.35;;;;;;;-142.57;100.00;115900.28;4978717;28;20411;-84
2023/07/30 04:10:22;;;;;;;3.83;2.08;;;;;;;-142.57;100.00;115900.28;4995948;28;20438;-84
2023/07/30 04:12:48;;;;;;;4.88;2.15;;;;;;;-142.57;99.21;115900.28;4978704;28;20045;-85
2023/07/30 04:15:17;;;;;;;7.88;2.50;;;;;;;-142.57;99.82;115900.28;4978059;28;20030;-83
2023/07/30 04:17:42;;;;;;;3.90;2.30;;;;;;;-142.57;99.88;115900.28;4978216;28;20042;-85
2023/07/30 04:20:11;;;;;;;3.35;2.20;;;;;;;-142.57;100.00;115900.28;4996023;28;20038;-82
2023/07/30 04:22:37;;;;;;;10.45;2.95;;;;;;;-142.57;100.00;115900.28;4995615;28;20042;-82
2023/07/30 04:25:03;;;;;;;3.90;2.40;;;;;;;-142.57;99.05;115900.28;4995383;28;20077;-82
2023/07/30 04:27:29;;;;;;;3.55;2.58;;;;;;;-142.57;98.71;115900.28;4995580;28;20030;-83
2023/07/30 04:29:54;;;;;;;7.63;2.70;;;;;;;-142.57;98.43;115900.28;4978278;28;20550;-82
2023/07/30 04:32:20;;;;;;;5.53;2.70;;;;;;;-142.57;97.65;115900.28;4977983;28;20031;-83
2023/07/30 04:34:46;;;;;;;8.65;2.50;;;;;;;-142.57;98.35;115900.28;4978104;28;20041;-83
2023/07/30 04:37:11;;;;;;;11.15;2.65;;;;;;;-142.57;97.01;115900.28;4977831;28;20023;-84
2023/07/30 04:39:37;;;;;;;4.78;2.78;;;;;;;-142.57;97.85;115900.28;4996550;28;20030;-82
2023/07/30 04:42:03;;;;;;;5.40;2.40;;;;;;;-142.57;97.94;115900.28;4977877;28;20049;-83
2023/07/30 04:44:29;;;;;;;7.97;2.65;;;;;;;-142.57;98.38;115900.28;4978000;28;20484;-84
2023/07/30 04:47:00;;;;;;;4.17;2.70;;;;;;;-142.57;97.40;115900.28;4977109;28;20395;-83
2023/07/30 04:49:26;;;;;;;4.93;2.55;;;;;;;-142.57;95.97;115900.28;4995400;28;20038;-82
2023/07/30 04:51:51;;;;;;;6.25;3.00;;;;;;;-142.57;95.65;115900.28;4977733;28;20034;-83
2023/07/30 04:54:17;;;;;;;5.55;2.50;;;;;;;-142.57;95.54;115900.28;4994782;28;20487;-84
2023/07/30 04:56:42;;;;;;;10.00;2.70;;;;;;;-142.57;96.21;115900.28;4977912;28;20113;-82
2023/07/30 04:59:08;;;;;;;5.85;2.78;;;;;;;-142.57;95.67;115900.28;4995148;28;20042;-83
2023/07/30 05:01:38;;;;;;;6.13;3.38;;;;;;;-142.57;95.59;115900.28;4978105;28;20125;-84
2023/07/30 05:04:04;;;;;;;10.45;3.90;;;;;;;-142.57;95.78;115900.28;4995738;28;20495;-85
2023/07/30 05:06:29;;;;;;;12.80;3.85;;;;;;;-142.57;94.65;115900.28;4995227;28;20037;-83
2023/07/30 05:08:55;;;;;;;15.43;4.28;;;;;;;-142.57;95.68;115900.28;4995463;28;20133;-84
2023/07/30 05:11:20;;;;;;;5.72;3.97;;;;;;;-142.57;95.57;115900.28;4995514;28;20041;-86
2023/07/30 05:13:46;;;;;;;10.30;3.25;;;;;;;-142.57;95.17;115900.28;4995218;28;20105;-84
2023/07/30 05:16:11;;;;;;;5.35;4.20;;;;;;;-142.57;96.27;115900.28;4995113;28;20530;-84
2023/07/30 05:18:37;;;;;;;8.07;4.55;;;;;;;-142.57;96.56;115900.28;4977786;28;20038;-84
2023/07/30 05:21:02;;;;;;;6.95;3.78;;;;;;;-142.57;97.67;115900.28;4995466;28;20076;-84
2023/07/30 05:23:28;;;;;;;6.63;4.00;;;;;;;-142.57;94.70;115900.28;4995473;28;20088;-85
2023/07/30 05:25:53;;;;;;;7.30;3.80;;;;;;;-142.57;95.02;115900.28;4998051;28;20092;-85
2023/07/30 05:28:19;;;;;;;8.05;4.63;;;;;;;-142.57;94.75;115900.28;4994854;28;20432;-85
2023/07/30 05:30:44;;;;;;;7.85;3.90;;;;;;;-142.57;95.23;115900.28;4995633;28;20368;-83
2023/07/30 05:33:10;;;;;;;8.07;3.80;;;;;;;-142.57;94.97;115900.28;4995050;28;20031;-86
2023/07/30 05:35:35;;;;;;;8.57;3.17;;;;;;;-142.57;94.61;115900.28;4995037;28;20438;-84
2023/07/30 05:38:01;;;;;;;6.18;3.88;;;;;;;-142.57;94.15;115900.28;4994621;28;20042;-84
2023/07/30 05:40:26;;;;;;;10.32;3.38;;;;;;;-142.57;93.72;115900.28;4994874;28;20034;-85
2023/07/30 05:42:52;;;;;;;11.60;2.65;;;;;;;-142.57;91.24;115900.28;4995626;28;20037;-84
2023/07/30 05:45:17;;;;;;;4.45;3.28;;;;;;;-142.57;89.28;115900.28;4994627;28;20121;-84
2023/07/30 05:47:43;;;;;;;6.07;3.45;;;;;;;-142.57;89.57;115900.28;4994312;28;20037;-84
2023/07/30 05:50:09;;;;;;;5.10;3.38;;;;;;;-142.57;87.52;115900.28;4976889;28;20038;-85
2023/07/30 05:52:34;;;;;;;6.40;2.63;;;;;;;-142.57;83.64;115900.28;4976791;28;20042;-86
2023/07/30 05:55:00;;;;;;;11.40;3.20;;;;;;;-142.57;82.76;115900.28;4977090;28;20041;-84
2023/07/30 05:57:25;;;;;;;4.65;2.45;;;;;;;-142.57;81.46;115900.28;4993992;28;20034;-84
2023/07/30 05:59:51;;;;;;;5.38;3.15;;;;;;;-142.57;80.49;115900.28;4994443;28;20040;-86
2023/07/30 06:02:17;;;;;;;6.70;2.97;;;;;;;-142.57;79.53;115900.28;4994128;28;20097;-83
2023/07/30 06:04:43;;;;;;;5.65;2.58;;;;;;;-142.57;77.68;115900.28;4993480;28;20035;-84
2023/07/30 06:07:09;;;;;;;14.18;2.80;;;;;;;-142.57;75.81;115900.28;4976433;28;20108;-85
2023/07/30 06:09:34;;;;;;;7.40;2.13;;;;;;;-142.57;73.49;115900.28;4994303;28;20061;-86
2023/07/30 06:12:00;;;;;;;6.38;2.67;;;;;;;-142.57;70.89;115900.28;4976323;28;20110;-87
2023/07/30 06:14:26;;;;;;;7.93;2.63;;;;;;;-142.57;66.41;115900.28;4994306;28;20086;-83
2023/07/30 06:16:52;;;;;;;6.82;2.28;;;;;;;-142.57;62.85;115900.28;4993909;28;20510;-88
2023/07/30 06:19:18;;;;;;;7.22;2.65;;;;;;;-142.57;65.22;115900.28;4976953;28;20124;-87
2023/07/30 06:21:44;;;;;;;4.10;2.53;;;;;;;-142.57;60.97;115900.28;4976247;28;20118;-85
2023/07/30 06:24:09;;;;;;;9.07;2.67;;;;;;;-142.57;59.90;115900.28;4994053;28;20076;-86
2023/07/30 06:26:35;;;;;;;5.07;2.63;;;;;;;-142.57;58.47;115900.28;4994164;28;20038;-85
2023/07/30 06:29:00;;;;;;;4.82;2.72;;;;;;;-142.57;60.47;115900.28;4993759;28;20089;-84
2023/07/30 06:31:26;;;;;;;7.00;2.60;;;;;;;-142.57;58.21;115900.28;4976310;28;20037;-84
2023/07/30 06:33:51;;;;;;;3.72;2.15;;;;;;;-142.57;61.01;115900.28;4993987;28;20026;-83
2023/07/30 06:36:17;;;;;;;3.72;2.45;;;;;;;-142.57;64.82;115900.28;4994020;28;20460;-85
2023/07/30 06:38:43;;;;;;;5.75;3.10;;;;;;;-142.57;61.47;115900.28;4993675;28;20034;-89
2023/07/30 06:41:08;;;;;;;5.70;2.53;;;;;;;-142.57;55.64;115900.28;4960853;28;20077;-86
2023/07/30 06:43:34;;;;;;;5.13;2.40;;;;;;;-142.57;55.99;115900.28;4994724;28;20071;-83
2023/07/30 06:46:00;;;;;;;5.95;2.42;;;;;;;-142.57;56.99;115900.28;4993959;28;20089;-84
2023/07/30 06:48:25;;;;;;;4.75;2.90;;;;;;;-142.57;59.44;115900.28;4993950;28;20041;-84
2023/07/30 06:50:51;;;;;;;7.30;2.90;;;;;;;-142.57;58.89;115900.28;4993728;28;20129;-85
2023/07/30 06:53:16;;;;;;;4.03;2.65;;;;;;;-142.57;56.83;115900.28;4994690;28;20076;-85
2023/07/30 06:55:42;;;;;;;5.45;2.38;;;;;;;-142.57;53.93;115900.28;4977275;28;20042;-86
2023/07/30 06:58:07;;;;;;;5.07;2.33;;;;;;;-142.57;51.70;115900.28;4976513;28;20430;-87
2023/07/30 07:00:33;;;;;;;5.25;2.20;;;;;;;-142.57;46.77;115900.28;4993233;28;20030;-86
2023/07/30 07:02:58;;;;;;;4.15;2.50;;;;;;;-142.57;48.68;115900.28;4977090;28;20488;-86
2023/07/30 07:05:24;;;;;;;7.45;2.70;;;;;;;-142.57;49.71;115900.28;4994093;28;20508;-88
2023/07/30 07:07:52;;;;;;;2.45;1.70;;;;;;;-142.57;49.40;115900.28;4995322;28;20467;-87
2023/07/30 07:10:17;;;;;;;7.30;2.17;;;;;;;-142.57;50.20;115900.28;4986039;28;20039;-88
2023/07/30 07:12:43;;;;;;;4.80;2.58;;;;;;;-142.57;47.72;115900.28;5005167;28;20031;-86
2023/07/30 07:15:09;;;;;;;8.88;2.95;;;;;;;-142.57;51.37;115900.28;5005175;28;20093;-88
2023/07/30 07:17:35;;;;;;;10.43;2.80;;;;;;;-142.57;53.07;115900.28;5009610;28;20035;-84
2023/07/30 07:20:00;;;;;;;11.70;2.63;;;;;;;-142.57;52.99;115900.28;5013946;28;20041;-85
2023/07/30 07:22:26;;;;;;;5.90;2.38;;;;;;;-142.57;51.85;115900.28;5009971;28;20043;-87
2023/07/30 07:24:52;;;;;;;4.72;2.55;;;;;;;-142.57;50.53;115900.28;4979920;28;20410;-85
2023/07/30 07:27:18;;;;;;;6.82;2.60;;;;;;;-142.57;50.96;115900.28;4979473;28;20039;-88
2023/07/30 07:29:44;;;;;;;10.10;2.65;;;;;;;-142.57;48.91;115900.28;4968655;28;20049;-88
2023/07/30 07:32:10;;;;;;;3.30;1.80;;;;;;;-142.57;47.79;115900.28;4980356;28;20027;-87
2023/07/30 07:34:35;;;;;;;6.68;2.70;;;;;;;-142.57;47.50;115900.28;4997761;28;20397;-87
2023/07/30 07:37:01;;;;;;;6.13;2.53;;;;;;;-142.57;48.53;115900.28;4998540;28;20026;-87
2023/07/30 07:39:27;;;;;;;7.95;2.45;;;;;;;-142.57;49.34;115900.28;4980344;28;20390;-85
2023/07/30 07:41:53;;;;;;;3.67;1.85;;;;;;;-142.57;45.27;115900.28;4997044;28;20110;-88
2023/07/30 07:44:18;;;;;;;4.88;2.60;;;;;;;-142.57;43.25;115900.28;4979522;28;20026;-86
2023/07/30 07:46:44;;;;;;;5.35;2.00;;;;;;;-142.57;43.54;115900.28;4996844;28;20042;-88
2023/07/30 07:49:09;;;;;;;6.68;1.98;;;;;;;-142.57;43.06;115900.28;4997003;28;20388;-85
2023/07/30 07:51:38;;;;;;;5.40;2.75;;;;;;;-142.57;41.16;115900.28;4997634;28;20094;-87
2023/07/30 07:54:04;;;;;;;5.38;2.60;;;;;;;-142.57;43.95;115900.28;4963709;28;20065;-86
2023/07/30 07:56:31;;;;;;;7.40;2.30;;;;;;;-142.57;43.14;115900.28;4997245;28;20483;-86
2023/07/30 07:58:57;;;;;;;6.65;2.67;;;;;;;-142.57;43.88;115900.28;4997432;28;20038;-87
2023/07/30 08:01:23;;;;;;;3.15;2.10;;;;;;;-142.57;43.26;115900.28;5011791;28;20030;-87
2023/07/30 08:03:49;;;;;;;4.25;2.53;;;;;;;-142.57;43.45;115900.28;4996266;28;20042;-86
2023/07/30 08:06:14;;;;;;;4.25;2.60;;;;;;;-142.57;42.91;115900.28;5009751;28;20035;-86
2023/07/30 08:08:40;;;;;;;5.47;2.50;;;;;;;-142.57;44.53;115900.28;5009657;28;20081;-87
2023/07/30 08:11:07;;;;;;;12.30;3.38;;;;;;;-142.57;45.14;115900.28;4992698;28;20069;-86
2023/07/30 08:13:34;;;;;;;4.47;2.58;;;;;;;-142.57;43.79;115900.28;4981933;28;20457;-88
2023/07/30 08:15:59;;;;;;;5.43;2.45;;;;;;;-142.57;43.45;115900.28;4982338;28;20042;-87
2023/07/30 08:18:29;;;;;;;6.10;2.70;;;;;;;-142.57;42.54;115900.28;4981932;28;20037;-86
2023/07/30 08:20:57;;;;;;;5.82;2.25;;;;;;;-142.57;42.29;115900.28;4982887;28;20034;-87
2023/07/30 08:23:25;;;;;;;6.07;2.35;;;;;;;-142.57;43.35;115900.28;4984858;28;20061;-88
2023/07/30 08:25:51;;;;;;;5.00;2.63;;;;;;;-142.57;44.29;115900.28;4992622;28;20030;-87
2023/07/30 08:28:16;;;;;;;7.65;2.42;;;;;;;-142.57;43.43;115900.28;5004840;28;20467;-86
2023/07/30 08:30:42;;;;;;;4.20;2.28;;;;;;;-142.57;42.84;115900.28;5003089;28;20054;-89
2023/07/30 08:33:07;;;;;;;8.57;2.95;;;;;;;-142.57;44.00;115900.28;5016609;28;20025;-86
2023/07/30 08:35:33;;;;;;;4.72;2.53;;;;;;;-142.57;42.77;115900.28;5000204;28;20026;-86
2023/07/30 08:37:59;;;;;;;6.50;2.75;;;;;;;-142.57;42.50;115900.28;5016914;28;20030;-88
2023/07/30 08:40:26;;;;;;;6.65;2.70;;;;;;;-142.57;42.12;115900.28;5013365;28;20038;-87
2023/07/30 08:42:54;;;;;;;8.43;2.22;;;;;;;-142.57;40.97;115900.28;5030322;28;20034;-86
2023/07/30 08:45:20;;;;;;;6.15;2.92;;;;;;;-142.57;42.58;115900.28;5020822;28;20065;-90
2023/07/30 08:47:47;;;;;;;7.00;3.05;;;;;;;-142.57;42.65;115900.28;5015961;28;20041;-89
2023/07/30 08:50:13;;;;;;;6.95;2.70;;;;;;;-142.57;40.85;115900.28;4999502;28;20046;-87
2023/07/30 08:52:39;;;;;;;8.48;3.10;;;;;;;-142.57;39.35;115900.28;5015212;28;20070;-88
2023/07/30 08:55:12;;;;;;;4.32;2.58;;;;;;;-142.57;39.05;115900.28;5012940;28;20491;-87
2023/07/30 08:57:40;;;;;;;6.40;3.28;;;;;;;-142.57;40.54;115900.28;5011566;28;20035;-87
2023/07/30 09:00:08;;;;;;;6.18;2.95;;;;;;;-142.57;43.95;115900.28;4980015;28;20046;-88
2023/07/30 09:02:39;;;;;;;9.18;2.78;;;;;;;-142.57;41.70;115900.28;5011021;28;20026;-89
2023/07/30 09:05:06;;;;;;;6.53;2.80;;;;;;;-142.57;41.03;115900.28;4997691;28;20057;-89
2023/07/30 09:07:31;;;;;;;7.00;2.80;;;;;;;-142.57;41.26;115900.28;4997709;28;20041;-88
2023/07/30 09:09:57;;;;;;;7.20;2.80;;;;;;;-142.57;42.08;115900.28;4996732;28;20034;-89
2023/07/30 09:12:32;;;;;;;6.43;2.17;;;;;;;-142.57;40.32;115900.28;4980034;28;20105;-88
2023/07/30 09:14:58;;;;;;;6.45;2.63;;;;;;;-142.57;40.67;115900.28;4997407;28;20049;-88
2023/07/30 09:17:25;;;;;;;5.93;2.67;;;;;;;-142.57;40.07;115900.28;4998651;28;20026;-87
2023/07/30 09:19:51;;;;;;;5.70;2.40;;;;;;;-142.57;38.71;115900.28;4996405;28;20022;-86
2023/07/30 09:22:27;;;;;;;5.10;2.42;;;;;;;-142.57;40.07;115900.28;4997308;28;20117;-89
2023/07/30 09:24:56;;;;;;;5.75;2.70;;;;;;;-142.57;40.11;115900.28;4973206;28;20091;-90
2023/07/30 09:27:26;;;;;;;6.90;2.45;;;;;;;-142.57;41.09;115900.28;4998852;28;20027;-87
2023/07/30 09:30:13;;;;;;;9.18;2.33;;;;;;;-142.57;41.82;115900.28;4999980;28;20026;-90
2023/07/30 09:32:55;;;;;;;10.60;2.72;;;;;;;-142.57;40.67;115900.28;5006168;28;20034;-91
2023/07/30 09:35:22;;;;;;;4.60;2.67;;;;;;;-142.57;40.44;115900.28;5008677;28;20034;-91
2023/07/30 09:37:48;;;;;;;9.70;2.47;;;;;;;-142.57;39.50;115900.28;5005922;28;20030;-89
2023/07/30 09:40:20;;;;;;;5.47;2.53;;;;;;;-142.57;39.47;115900.28;4989905;28;20022;-90
2023/07/30 09:43:00;;;;;;;5.97;2.30;;;;;;;-142.57;40.09;115900.28;4976590;23;20078;-91
2023/07/30 09:45:26;;;;;;;8.55;2.75;;;;;;;-142.57;39.47;115900.28;4934436;29;20055;-88
2023/07/30 09:47:53;;;;;;;11.65;3.15;;;;;;;-142.57;41.27;115900.28;4934356;29;20036;-85
2023/07/30 09:50:19;;;;;;;11.45;3.17;;;;;;;-142.57;41.45;115900.28;4947860;28;20035;-87
2023/07/30 09:52:45;;;;;;;8.77;2.78;;;;;;;-142.57;42.18;115900.28;4943738;29;20397;-91
2023/07/30 09:55:15;;;;;;;6.35;3.13;;;;;;;-142.57;42.85;115900.28;4942412;28;20067;-86
2023/07/30 09:57:49;;;;;;;7.32;2.58;;;;;;;-142.57;42.86;115900.28;4959365;28;20049;-93
2023/07/30 10:00:15;;;;;;;6.65;2.60;;;;;;;-142.57;42.85;115900.28;4932959;29;20441;-91
2023/07/30 10:02:50;;;;;;;9.13;2.25;;;;;;;-142.57;41.96;115900.28;4967080;29;20074;-89
2023/07/30 10:05:19;;;;;;;7.15;2.42;;;;;;;-142.57;40.77;115900.28;4964676;29;20035;-92
2023/07/30 10:07:53;;;;;;;6.03;2.55;;;;;;;-142.57;40.65;115900.28;4964344;29;20073;-90
2023/07/30 10:10:24;;;;;;;6.40;2.60;;;;;;;-142.57;40.27;115900.28;4960783;29;20031;-88
2023/07/30 10:12:55;;;;;;;6.93;2.58;;;;;;;-142.57;40.16;115900.28;4961443;29;20038;-88
2023/07/30 10:15:23;;;;;;;6.32;2.65;;;;;;;-142.57;40.01;115900.28;4943507;29;20030;-85
2023/07/30 10:17:52;;;;;;;4.43;2.20;;;;;;;-142.57;39.54;115900.28;4947115;29;20023;-86
2023/07/30 10:20:25;;;;;;;9.77;2.67;;;;;;;-142.57;39.15;115900.28;4943938;29;20098;-89
2023/07/30 10:22:56;;;;;;;6.15;2.63;;;;;;;-142.57;38.24;115900.28;4959846;28;20393;-86
2023/07/30 10:25:48;;;;;;;8.43;2.17;;;;;;;-142.57;36.39;115900.28;4958823;28;20485;-87
2023/07/30 10:28:30;;;;;;;4.68;2.20;;;;;;;-142.57;36.29;115900.28;4947001;28;20046;-86
2023/07/30 10:31:04;;;;;;;3.22;2.33;;;;;;;-142.57;36.40;115900.28;4942773;28;20046;-88
2023/07/30 10:33:53;;;;;;;4.88;2.55;;;;;;;-142.57;39.45;115900.28;4960713;28;20035;-89
2023/07/30 10:36:32;;;;;;;7.22;2.50;;;;;;;-142.57;38.32;115900.28;4963276;28;20027;-89
2023/07/30 10:39:25;;;;;;;5.20;2.50;;;;;;;-142.57;37.55;115900.28;4965906;28;20046;-91
2023/07/30 10:41:55;;;;;;;5.07;2.33;;;;;;;-142.57;37.71;115900.28;4939980;29;20046;-88
2023/07/30 10:47:03;;;;;;;4.47;2.30;;;;;;;-142.57;36.62;115900.28;3203001;26;20132;-89
2023/07/30 10:49:29;;;;;;;3.47;2.15;;;;;;;-142.57;35.75;115900.28;5003746;28;20048;-89
2023/07/30 10:51:59;;;;;;;4.00;1.98;;;;;;;-142.57;35.19;115900.28;5010528;28;20834;-91
2023/07/30 10:54:36;;;;;;;4.00;2.42;;;;;;;-142.57;35.17;115900.28;5033623;28;20030;-92
2023/07/30 10:57:03;;;;;;;10.85;2.22;;;;;;;-142.57;34.13;115900.28;5028002;28;20034;-89
2023/07/30 10:59:37;;;;;;;6.03;2.10;;;;;;;-142.57;33.97;115900.28;5032981;28;20042;-91
2023/07/30 11:02:05;;;;;;;4.57;2.22;;;;;;;-142.57;34.55;115900.28;5001079;28;20045;-92
2023/07/30 11:04:50;;;;;;;3.42;1.92;;;;;;;-142.57;35.00;115900.28;5003475;28;20049;-92
2023/07/30 11:07:34;;;;;;;2.97;1.80;;;;;;;-142.57;35.20;115900.28;5002083;23;20099;-90
2023/07/30 11:13:22;;;;;;;4.88;2.25;;;;;;;-142.57;36.72;115900.28;4902079;29;20053;-90
2023/07/30 11:15:51;;;;;;;4.45;1.90;;;;;;;-142.57;37.40;115900.28;4882216;29;20086;-92